createdAt,value
2023-03-31T00:02:22.808Z,10.90
2023-03-31T00:08:30.147Z,10.80
2023-03-31T00:14:32.537Z,10.70
2023-03-31T00:20:38.222Z,10.70
2023-03-31T00:26:40.422Z,10.60
2023-03-31T00:32:42.707Z,10.60
2023-03-31T00:38:46.366Z,10.50
2023-03-31T00:45:19.151Z,10.50
2023-03-31T00:51:23.286Z,10.50
2023-03-31T00:57:28.614Z,10.50
2023-03-31T01:03:33.521Z,10.40
2023-03-31T01:09:35.715Z,10.50
2023-03-31T01:15:38.926Z,10.50
2023-03-31T01:22:08.668Z,10.60
2023-03-31T01:29:08.620Z,10.50
2023-03-31T01:35:54.410Z,10.50
2023-03-31T01:42:31.476Z,10.40
2023-03-31T01:48:58.686Z,10.40
2023-03-31T01:55:12.590Z,10.30
2023-03-31T02:01:31.540Z,10.40
2023-03-31T02:07:48.062Z,10.40
2023-03-31T02:13:53.177Z,10.40
2023-03-31T02:19:56.918Z,10.50
2023-03-31T02:26:14.568Z,10.50
2023-03-31T02:32:23.358Z,10.50
2023-03-31T02:38:25.765Z,10.50
2023-03-31T02:44:27.858Z,10.50
2023-03-31T02:50:48.534Z,10.50
2023-03-31T02:57:27.173Z,10.50
2023-03-31T03:03:57.249Z,10.60
2023-03-31T03:10:09.454Z,10.70
2023-03-31T03:16:27.352Z,10.70
2023-03-31T03:22:29.373Z,10.80
2023-03-31T03:28:31.484Z,10.70
2023-03-31T03:34:33.380Z,10.60
2023-03-31T03:40:35.313Z,10.60
2023-03-31T03:46:37.251Z,10.50
2023-03-31T03:52:39.300Z,10.50
2023-03-31T03:58:41.214Z,10.40
2023-03-31T04:04:43.182Z,10.40
2023-03-31T04:10:49.731Z,10.50
2023-03-31T04:16:52.029Z,10.60
2023-03-31T04:22:54.695Z,10.60
2023-03-31T04:29:02.860Z,10.70
2023-03-31T04:35:05.176Z,10.70
2023-03-31T04:41:07.799Z,10.80
2023-03-31T04:47:09.670Z,10.90
2023-03-31T04:53:11.631Z,10.90
2023-03-31T04:59:13.644Z,10.90
2023-03-31T05:05:15.662Z,11.00
2023-03-31T05:11:17.698Z,10.90
2023-03-31T05:17:19.572Z,10.80
2023-03-31T05:23:21.526Z,10.70
2023-03-31T05:29:24.407Z,10.70
2023-03-31T05:35:26.774Z,10.80
2023-03-31T05:41:28.776Z,10.80
2023-03-31T05:47:30.938Z,10.90
2023-03-31T05:53:33.773Z,10.90
2023-03-31T05:59:36.238Z,10.90
2023-03-31T06:05:38.131Z,10.80
2023-03-31T06:11:40.116Z,10.80
2023-03-31T06:17:42.059Z,10.90
2023-03-31T06:23:45.273Z,10.90
2023-03-31T06:29:47.220Z,11.10
2023-03-31T06:35:49.144Z,11.20
2023-03-31T06:41:51.036Z,11.50
2023-03-31T06:47:52.957Z,11.60
2023-03-31T06:53:54.879Z,11.60
2023-03-31T06:59:56.800Z,11.60
2023-03-31T07:05:59.538Z,11.50
2023-03-31T07:12:01.719Z,11.40
2023-03-31T07:18:03.668Z,11.40
2023-03-31T07:24:05.874Z,11.50
2023-03-31T07:30:11.791Z,11.50
2023-03-31T07:36:14.386Z,11.50
2023-03-31T07:42:16.494Z,11.50
2023-03-31T07:48:18.526Z,11.50
2023-03-31T07:54:20.563Z,11.50
2023-03-31T08:00:23.168Z,11.60
2023-03-31T08:06:26.772Z,11.60
2023-03-31T08:12:28.681Z,11.70
2023-03-31T08:18:30.615Z,11.90
2023-03-31T08:24:32.561Z,12.00
2023-03-31T08:30:34.543Z,11.90
2023-03-31T08:36:37.721Z,11.80
2023-03-31T08:42:51.622Z,11.60
2023-03-31T08:48:57.655Z,11.40
2023-03-31T08:55:07.741Z,11.20
2023-03-31T09:01:54.735Z,11.20
2023-03-31T09:08:42.980Z,11.10
2023-03-31T09:14:53.364Z,10.90
2023-03-31T09:21:16.194Z,10.70
2023-03-31T09:27:19.887Z,10.70
2023-03-31T09:33:32.205Z,10.80
2023-03-31T09:39:34.380Z,10.80
2023-03-31T09:45:36.409Z,10.90
2023-03-31T09:51:44.436Z,10.90
2023-03-31T09:57:46.522Z,10.90
2023-03-31T10:03:52.597Z,10.90
2023-03-31T10:09:56.283Z,11.00
2023-03-31T10:16:12.811Z,11.00
2023-03-31T10:22:31.118Z,10.80
2023-03-31T10:28:36.071Z,10.90
2023-03-31T10:34:42.917Z,11.00
2023-03-31T10:40:54.685Z,10.90
2023-03-31T10:47:06.421Z,11.00
2023-03-31T10:53:17.134Z,11.10
2023-03-31T10:59:52.012Z,11.20
2023-03-31T11:06:18.265Z,11.60
2023-03-31T11:12:41.591Z,12.10
2023-03-31T11:19:25.050Z,12.60
2023-03-31T11:25:37.293Z,13.00
2023-03-31T11:32:19.686Z,13.70
2023-03-31T11:38:42.289Z,14.20
2023-03-31T11:44:53.129Z,14.30
2023-03-31T11:50:57.443Z,14.70
2023-03-31T11:57:09.717Z,14.90
2023-03-31T12:03:38.889Z,15.70
2023-03-31T12:10:12.342Z,17.30
2023-03-31T12:16:48.547Z,19.00
2023-03-31T12:22:50.821Z,19.00
2023-03-31T12:29:04.500Z,17.90
2023-03-31T12:35:23.624Z,17.00
2023-03-31T12:41:43.155Z,16.30
2023-03-31T12:48:11.587Z,15.90
2023-03-31T12:55:00.262Z,15.40
2023-03-31T13:01:19.171Z,15.20
2023-03-31T13:07:28.398Z,15.10
2023-03-31T13:13:31.350Z,14.90
2023-03-31T13:19:37.641Z,14.90
2023-03-31T13:25:56.551Z,14.70
2023-03-31T13:32:01.485Z,14.40
2023-03-31T13:38:48.998Z,14.00
2023-03-31T13:45:21.207Z,13.30
2023-03-31T13:51:53.590Z,11.90
2023-03-31T14:05:05.806Z,10.90
2023-03-31T14:11:29.965Z,10.90
2023-03-31T14:17:40.736Z,11.00
2023-03-31T14:24:03.834Z,11.30
2023-03-31T14:30:38.615Z,11.90
2023-03-31T14:36:57.948Z,12.30
2023-03-31T14:43:00.483Z,12.60
2023-03-31T14:49:28.935Z,12.60
2023-03-31T14:55:49.787Z,12.20
2023-03-31T15:01:58.617Z,11.60
2023-03-31T15:08:04.513Z,11.40
2023-03-31T15:14:09.605Z,11.50
2023-03-31T15:20:37.592Z,11.50
2023-03-31T15:27:13.779Z,11.60
2023-03-31T15:33:33.038Z,11.90
2023-03-31T15:39:37.750Z,12.40
2023-03-31T15:45:56.443Z,12.50
2023-03-31T15:52:00.488Z,12.30
2023-03-31T15:58:02.561Z,12.10
2023-03-31T16:04:12.880Z,11.90
2023-03-31T16:10:23.190Z,11.90
2023-03-31T16:16:28.368Z,11.90
2023-03-31T16:22:38.178Z,11.80
2023-03-31T16:28:40.438Z,11.80
2023-03-31T16:34:58.339Z,11.80
2023-03-31T16:41:00.766Z,11.80
2023-03-31T16:47:02.650Z,11.70
2023-03-31T16:53:04.618Z,11.60
2023-03-31T16:59:08.185Z,11.50
2023-03-31T17:05:13.290Z,11.40
2023-03-31T17:11:15.963Z,11.30
2023-03-31T17:17:18.133Z,11.20
2023-03-31T17:23:22.112Z,11.10
2023-03-31T17:29:24.716Z,11.00
2023-03-31T17:35:26.918Z,10.80
2023-03-31T17:41:31.627Z,10.70
2023-03-31T17:47:33.540Z,10.60
2023-03-31T17:53:36.679Z,10.50
2023-03-31T17:59:39.043Z,10.50
2023-03-31T18:05:41.670Z,10.40
2023-03-31T18:11:43.682Z,10.30
2023-03-31T18:17:45.675Z,10.30
2023-03-31T18:23:52.561Z,10.30
2023-03-31T18:29:54.510Z,10.40
2023-03-31T18:35:59.620Z,10.40
2023-03-31T18:42:01.588Z,10.40
2023-03-31T18:48:03.679Z,10.30
2023-03-31T18:54:06.190Z,10.40
2023-03-31T19:00:09.915Z,10.30
2023-03-31T19:06:12.358Z,10.30
2023-03-31T19:12:14.315Z,10.40
2023-03-31T19:18:16.529Z,10.30
2023-03-31T19:24:18.482Z,10.30
2023-03-31T19:30:24.139Z,10.40
2023-03-31T19:36:26.043Z,10.40
2023-03-31T19:42:27.978Z,10.30
2023-03-31T19:48:33.617Z,10.40
2023-03-31T19:54:36.098Z,10.30
2023-03-31T20:00:38.091Z,10.20
2023-03-31T20:06:40.110Z,10.20
2023-03-31T20:12:42.113Z,10.10
2023-03-31T20:18:48.042Z,10.10
2023-03-31T20:24:50.112Z,10.10
2023-03-31T20:30:55.754Z,10.20
2023-03-31T20:36:58.161Z,10.00
2023-03-31T20:43:00.105Z,10.00
2023-03-31T20:49:02.203Z,9.90
2023-03-31T20:55:04.607Z,9.80
2023-03-31T21:01:06.642Z,9.90
2023-03-31T21:07:08.570Z,9.80
2023-03-31T21:13:13.429Z,9.80
2023-03-31T21:19:15.430Z,9.90
2023-03-31T21:25:17.340Z,9.80
2023-03-31T21:31:19.736Z,9.90
2023-03-31T21:37:21.681Z,9.90
2023-03-31T21:43:25.875Z,9.90
2023-03-31T21:49:28.674Z,9.90
2023-03-31T21:55:35.840Z,9.90
2023-03-31T22:01:37.839Z,9.90
2023-03-31T22:07:40.466Z,10.00
2023-03-31T22:13:42.417Z,10.00
2023-03-31T22:19:44.623Z,10.10
2023-03-31T22:25:47.810Z,10.20
2023-03-31T22:31:49.747Z,10.30
2023-03-31T22:37:51.732Z,10.40
2023-03-31T22:43:53.651Z,10.50
2023-03-31T22:49:55.749Z,10.50
2023-03-31T22:56:04.280Z,10.60
2023-03-31T23:02:06.239Z,10.60
2023-03-31T23:08:08.147Z,10.60
2023-03-31T23:14:10.088Z,10.60
2023-03-31T23:20:12.830Z,10.60
2023-03-31T23:26:15.830Z,10.70
2023-03-31T23:32:17.937Z,10.70
2023-03-31T23:38:20.751Z,10.70
2023-03-31T23:44:22.741Z,10.70
2023-03-31T23:50:24.688Z,10.60
2023-03-31T23:56:28.483Z,10.60
